createdAt,value
2018-09-16T00:00:43.556Z,14.10
2018-09-16T00:03:10.968Z,14.20
2018-09-16T00:05:38.406Z,14.20
2018-09-16T00:08:05.825Z,14.20
2018-09-16T00:10:33.176Z,14.10
2018-09-16T00:13:00.625Z,14.10
2018-09-16T00:15:28.133Z,14.00
2018-09-16T00:17:55.595Z,13.90
2018-09-16T00:20:23.012Z,13.80
2018-09-16T00:22:50.364Z,13.70
2018-09-16T00:25:17.817Z,13.70
2018-09-16T00:27:45.201Z,13.70
2018-09-16T00:30:12.717Z,13.70
2018-09-16T00:32:44.088Z,13.70
2018-09-16T00:35:12.012Z,13.70
2018-09-16T00:37:39.513Z,13.70
2018-09-16T00:40:06.984Z,13.70
2018-09-16T00:42:34.502Z,13.70
2018-09-16T00:45:01.961Z,13.70
2018-09-16T00:47:29.431Z,13.70
2018-09-16T00:49:56.858Z,13.60
2018-09-16T00:52:24.217Z,13.60
2018-09-16T00:54:51.588Z,13.60
2018-09-16T00:57:19.054Z,13.60
2018-09-16T00:59:46.516Z,13.60
2018-09-16T01:02:13.903Z,13.60
2018-09-16T01:04:41.352Z,13.60
2018-09-16T01:07:08.845Z,13.60
2018-09-16T01:09:36.273Z,13.60
2018-09-16T01:12:03.777Z,13.60
2018-09-16T01:14:31.296Z,13.50
2018-09-16T01:16:58.711Z,13.50
2018-09-16T01:19:27.624Z,13.50
2018-09-16T01:21:55.440Z,13.50
2018-09-16T01:24:22.931Z,13.50
2018-09-16T01:26:50.391Z,13.40
2018-09-16T01:29:17.827Z,13.40
2018-09-16T01:31:45.300Z,13.40
2018-09-16T01:34:12.798Z,13.40
2018-09-16T01:36:40.325Z,13.40
2018-09-16T01:39:07.740Z,13.40
2018-09-16T01:41:35.375Z,13.30
2018-09-16T01:44:02.918Z,13.20
2018-09-16T01:46:30.490Z,13.10
2018-09-16T01:48:57.986Z,13.00
2018-09-16T01:51:25.408Z,13.00
2018-09-16T01:53:52.781Z,13.00
2018-09-16T01:56:20.232Z,12.90
2018-09-16T01:58:48.148Z,12.80
2018-09-16T02:01:15.680Z,12.70
2018-09-16T02:03:43.122Z,12.70
2018-09-16T02:06:10.658Z,12.80
2018-09-16T02:08:38.108Z,12.80
2018-09-16T02:11:05.651Z,12.80
2018-09-16T02:13:33.112Z,12.80
2018-09-16T02:16:00.506Z,12.90
2018-09-16T02:18:27.946Z,12.90
2018-09-16T02:20:55.412Z,12.90
2018-09-16T02:23:22.858Z,12.90
2018-09-16T02:25:50.300Z,12.90
2018-09-16T02:28:17.793Z,12.80
2018-09-16T02:30:45.263Z,12.80
2018-09-16T02:33:12.713Z,12.80
2018-09-16T02:35:40.144Z,12.80
2018-09-16T02:38:07.558Z,12.80
2018-09-16T02:40:35.072Z,12.80
2018-09-16T02:43:02.506Z,12.80
2018-09-16T02:45:29.998Z,12.80
2018-09-16T02:47:57.583Z,12.70
2018-09-16T02:50:25.058Z,12.70
2018-09-16T02:52:52.459Z,12.70
2018-09-16T02:55:19.957Z,12.70
2018-09-16T02:57:47.478Z,12.70
2018-09-16T03:00:14.970Z,12.70
2018-09-16T03:02:42.436Z,12.70
2018-09-16T03:05:09.938Z,12.60
2018-09-16T03:07:37.376Z,12.60
2018-09-16T03:10:05.946Z,12.60
2018-09-16T03:12:33.408Z,12.60
2018-09-16T03:15:00.862Z,12.50
2018-09-16T03:17:28.247Z,12.60
2018-09-16T03:19:55.658Z,12.60
2018-09-16T03:22:23.156Z,12.60
2018-09-16T03:24:50.534Z,12.50
2018-09-16T03:27:18.008Z,12.40
2018-09-16T03:29:45.402Z,12.20
2018-09-16T03:32:12.855Z,12.20
2018-09-16T03:34:40.291Z,12.10
2018-09-16T03:37:07.728Z,12.10
2018-09-16T03:39:35.188Z,12.00
2018-09-16T03:42:02.571Z,12.00
2018-09-16T03:44:30.054Z,12.00
2018-09-16T03:46:57.554Z,11.90
2018-09-16T03:49:24.965Z,11.80
2018-09-16T03:51:52.752Z,11.70
2018-09-16T03:54:20.202Z,11.60
2018-09-16T03:56:47.689Z,11.70
2018-09-16T03:59:15.077Z,11.70
2018-09-16T04:01:42.424Z,11.80
2018-09-16T04:04:09.792Z,11.80
2018-09-16T04:06:37.200Z,11.80
2018-09-16T04:09:06.993Z,11.80
2018-09-16T04:11:34.362Z,11.90
2018-09-16T04:14:01.949Z,11.90
2018-09-16T04:16:29.303Z,11.90
2018-09-16T04:18:56.750Z,11.90
2018-09-16T04:21:24.216Z,11.80
2018-09-16T04:23:51.659Z,11.90
2018-09-16T04:26:19.169Z,11.80
2018-09-16T04:28:46.598Z,11.80
2018-09-16T04:31:15.004Z,11.70
2018-09-16T04:33:42.612Z,11.60
2018-09-16T04:36:10.005Z,11.60
2018-09-16T04:38:37.470Z,11.50
2018-09-16T04:41:05.073Z,11.60
2018-09-16T04:43:32.554Z,11.50
2018-09-16T04:45:59.937Z,11.60
2018-09-16T04:48:27.331Z,11.60
2018-09-16T04:50:54.944Z,11.60
2018-09-16T04:53:22.340Z,11.60
2018-09-16T04:55:49.823Z,11.70
2018-09-16T04:58:17.275Z,11.70
2018-09-16T05:00:44.720Z,11.70
2018-09-16T05:03:12.158Z,11.70
2018-09-16T05:05:39.599Z,11.70
2018-09-16T05:08:07.024Z,11.70
2018-09-16T05:10:34.977Z,11.70
2018-09-16T05:13:02.417Z,11.70
2018-09-16T05:15:30.178Z,11.60
2018-09-16T05:17:58.201Z,11.60
2018-09-16T05:20:26.134Z,11.50
2018-09-16T05:22:53.606Z,11.50
2018-09-16T05:25:21.006Z,11.40
2018-09-16T05:27:48.515Z,11.50
2018-09-16T05:30:16.383Z,11.50
2018-09-16T05:32:43.936Z,11.50
2018-09-16T05:35:11.468Z,11.50
2018-09-16T05:37:39.269Z,11.50
2018-09-16T05:40:06.743Z,11.60
2018-09-16T05:42:34.155Z,11.50
2018-09-16T05:45:01.607Z,11.50
2018-09-16T05:47:29.247Z,11.50
2018-09-16T05:49:56.670Z,11.50
2018-09-16T05:52:24.144Z,11.60
2018-09-16T05:54:51.685Z,11.60
2018-09-16T05:57:19.112Z,11.70
2018-09-16T05:59:46.556Z,11.70
2018-09-16T06:02:14.138Z,11.70
2018-09-16T06:04:41.549Z,11.70
2018-09-16T06:07:10.034Z,11.70
2018-09-16T06:09:37.450Z,11.70
2018-09-16T06:12:04.979Z,11.70
2018-09-16T06:14:32.359Z,11.70
2018-09-16T06:16:59.823Z,11.70
2018-09-16T06:19:27.276Z,11.70
2018-09-16T06:21:54.833Z,11.70
2018-09-16T06:24:22.241Z,11.70
2018-09-16T06:26:49.701Z,11.70
2018-09-16T06:29:17.113Z,11.80
2018-09-16T06:31:44.591Z,11.80
2018-09-16T06:34:12.075Z,11.90
2018-09-16T06:36:39.574Z,12.00
2018-09-16T06:39:08.716Z,12.00
2018-09-16T06:41:36.188Z,12.00
2018-09-16T06:44:03.595Z,12.00
2018-09-16T06:46:31.006Z,12.00
2018-09-16T06:48:58.366Z,12.00
2018-09-16T06:51:25.956Z,12.00
2018-09-16T06:53:53.348Z,12.00
2018-09-16T06:56:20.842Z,12.10
2018-09-16T06:58:48.320Z,12.10
2018-09-16T07:01:15.768Z,12.20
2018-09-16T07:03:43.230Z,12.20
2018-09-16T07:06:10.639Z,12.20
2018-09-16T07:08:38.081Z,12.30
2018-09-16T07:11:05.745Z,12.30
2018-09-16T07:13:33.154Z,12.30
2018-09-16T07:16:00.580Z,12.30
2018-09-16T07:18:28.077Z,12.40
2018-09-16T07:20:55.568Z,12.40
2018-09-16T07:23:23.184Z,12.40
2018-09-16T07:25:50.630Z,12.50
2018-09-16T07:28:18.064Z,12.60
2018-09-16T07:30:45.510Z,12.70
2018-09-16T07:33:12.932Z,12.80
2018-09-16T07:35:40.323Z,12.90
2018-09-16T07:38:07.768Z,12.90
2018-09-16T07:40:35.220Z,13.00
2018-09-16T07:43:02.701Z,13.00
2018-09-16T07:45:30.038Z,13.10
2018-09-16T07:47:57.389Z,13.10
2018-09-16T07:50:24.808Z,13.10
2018-09-16T07:52:52.261Z,13.20
2018-09-16T07:55:19.681Z,13.20
2018-09-16T07:57:47.107Z,13.30
2018-09-16T08:00:14.568Z,13.40
2018-09-16T08:02:42.028Z,13.50
2018-09-16T08:05:09.475Z,13.60
2018-09-16T08:07:36.924Z,13.80
2018-09-16T08:10:04.464Z,14.00
2018-09-16T08:12:31.917Z,14.10
2018-09-16T08:14:59.359Z,14.30
2018-09-16T08:17:26.816Z,14.30
2018-09-16T08:19:54.231Z,14.30
2018-09-16T08:22:21.694Z,14.30
2018-09-16T08:24:49.139Z,14.30
2018-09-16T08:27:16.597Z,14.40
2018-09-16T08:29:43.959Z,14.50
2018-09-16T08:32:11.382Z,14.50
2018-09-16T08:34:39.601Z,14.60
2018-09-16T08:37:06.997Z,14.70
2018-09-16T08:39:34.379Z,14.70
2018-09-16T08:42:02.093Z,14.80
2018-09-16T08:44:29.495Z,14.80
2018-09-16T08:46:56.954Z,14.90
2018-09-16T08:49:24.358Z,15.00
2018-09-16T08:51:53.547Z,15.20
2018-09-16T08:54:21.105Z,15.40
2018-09-16T08:56:48.885Z,15.50
2018-09-16T08:59:16.310Z,15.70
2018-09-16T09:01:43.770Z,15.70
2018-09-16T09:04:11.207Z,15.80
2018-09-16T09:06:38.621Z,15.80
2018-09-16T09:09:08.111Z,15.80
2018-09-16T09:11:35.508Z,15.80
2018-09-16T09:14:02.973Z,15.90
2018-09-16T09:16:30.430Z,16.00
2018-09-16T09:18:57.936Z,16.10
2018-09-16T09:21:25.381Z,16.20
2018-09-16T09:23:52.767Z,16.20
2018-09-16T09:26:20.262Z,16.30
2018-09-16T09:28:47.710Z,16.40
2018-09-16T09:31:15.109Z,16.50
2018-09-16T09:33:42.876Z,16.50
2018-09-16T09:36:10.287Z,16.50
2018-09-16T09:38:37.672Z,16.60
2018-09-16T09:41:05.139Z,16.80
2018-09-16T09:43:32.621Z,16.80
2018-09-16T09:46:00.132Z,16.80
2018-09-16T09:48:27.647Z,17.00
2018-09-16T09:50:55.062Z,17.40
2018-09-16T09:53:22.475Z,17.40
2018-09-16T09:55:49.944Z,17.30
2018-09-16T09:58:17.357Z,17.30
2018-09-16T10:00:48.865Z,17.30
2018-09-16T10:03:16.569Z,17.40
2018-09-16T10:05:44.402Z,17.50
2018-09-16T10:08:11.808Z,17.70
2018-09-16T10:10:39.244Z,17.80
2018-09-16T10:13:06.712Z,17.90
2018-09-16T10:15:34.115Z,18.00
2018-09-16T10:18:01.706Z,18.10
2018-09-16T10:20:29.726Z,18.20
2018-09-16T10:22:57.166Z,18.30
2018-09-16T10:25:24.659Z,18.40
2018-09-16T10:27:52.119Z,18.40
2018-09-16T10:30:19.860Z,18.40
2018-09-16T10:32:47.437Z,18.50
2018-09-16T10:35:14.828Z,18.50
2018-09-16T10:37:42.475Z,18.60
2018-09-16T10:40:10.179Z,18.70
2018-09-16T10:42:37.516Z,18.90
2018-09-16T10:45:05.084Z,19.00
2018-09-16T10:47:32.459Z,19.00
2018-09-16T10:49:59.897Z,19.10
2018-09-16T10:52:27.353Z,19.10
2018-09-16T10:54:54.801Z,19.40
2018-09-16T10:57:22.228Z,19.60
2018-09-16T10:59:49.674Z,19.60
2018-09-16T11:02:17.120Z,19.60
2018-09-16T11:04:44.663Z,19.60
2018-09-16T11:07:12.253Z,19.50
2018-09-16T11:09:39.725Z,19.50
2018-09-16T11:12:07.115Z,19.60
2018-09-16T11:14:34.495Z,19.70
2018-09-16T11:17:01.986Z,19.70
2018-09-16T11:19:29.440Z,19.80
2018-09-16T11:21:56.946Z,19.90
2018-09-16T11:24:24.396Z,19.90
2018-09-16T11:26:51.830Z,20.10
2018-09-16T11:29:19.336Z,20.20
2018-09-16T11:31:46.848Z,20.20
2018-09-16T11:34:14.195Z,20.20
2018-09-16T11:36:41.585Z,20.30
2018-09-16T11:39:10.624Z,20.30
2018-09-16T11:41:38.113Z,20.30
2018-09-16T11:44:05.657Z,20.50
2018-09-16T11:46:33.102Z,20.50
2018-09-16T11:49:00.542Z,20.60
2018-09-16T11:51:27.976Z,20.60
2018-09-16T11:53:55.326Z,20.70
2018-09-16T11:56:22.676Z,20.70
2018-09-16T11:58:50.176Z,20.70
2018-09-16T12:01:17.694Z,20.80
2018-09-16T12:03:45.178Z,20.80
2018-09-16T12:06:12.617Z,20.90
2018-09-16T12:08:40.140Z,21.10
2018-09-16T12:11:07.562Z,21.10
2018-09-16T12:13:34.930Z,21.20
2018-09-16T12:16:02.338Z,21.20
2018-09-16T12:18:29.824Z,21.20
2018-09-16T12:20:57.276Z,21.30
2018-09-16T12:23:24.751Z,21.30
2018-09-16T12:25:52.195Z,21.30
2018-09-16T12:28:19.684Z,21.30
2018-09-16T12:30:47.148Z,21.40
2018-09-16T12:33:14.608Z,21.80
2018-09-16T12:35:42.101Z,21.70
2018-09-16T12:38:09.631Z,21.70
2018-09-16T12:40:37.102Z,21.70
2018-09-16T12:43:04.594Z,21.70
2018-09-16T12:45:32.256Z,21.90
2018-09-16T12:48:01.752Z,22.00
2018-09-16T12:50:29.240Z,22.10
2018-09-16T12:52:56.713Z,22.20
2018-09-16T12:55:24.209Z,22.40
2018-09-16T12:57:51.611Z,22.50
2018-09-16T13:00:19.065Z,22.50
2018-09-16T13:02:46.542Z,22.40
2018-09-16T13:05:13.960Z,22.40
2018-09-16T13:07:41.367Z,22.40
2018-09-16T13:10:08.793Z,22.50
2018-09-16T13:12:36.392Z,22.60
2018-09-16T13:15:04.024Z,22.60
2018-09-16T13:17:31.465Z,22.60
2018-09-16T13:19:58.937Z,22.60
2018-09-16T13:22:26.417Z,22.50
2018-09-16T13:24:53.889Z,22.60
2018-09-16T13:27:21.302Z,22.50
2018-09-16T13:29:48.689Z,22.50
2018-09-16T13:32:16.099Z,22.80
2018-09-16T13:34:43.803Z,23.40
2018-09-16T13:37:11.244Z,23.60
2018-09-16T13:39:38.672Z,23.70
2018-09-16T13:42:06.176Z,24.00
2018-09-16T13:44:33.530Z,23.90
2018-09-16T13:47:00.912Z,24.20
2018-09-16T13:49:28.401Z,24.20
2018-09-16T13:51:55.953Z,24.40
2018-09-16T13:54:23.393Z,24.00
2018-09-16T13:56:50.800Z,23.70
2018-09-16T13:59:18.292Z,23.80
2018-09-16T14:01:45.665Z,23.60
2018-09-16T14:04:13.122Z,23.30
2018-09-16T14:06:40.507Z,23.30
2018-09-16T14:09:09.178Z,23.40
2018-09-16T14:11:36.570Z,23.30
2018-09-16T14:14:03.932Z,23.30
2018-09-16T14:16:31.437Z,23.30
2018-09-16T14:18:58.903Z,23.40
2018-09-16T14:21:26.311Z,23.40
2018-09-16T14:23:53.748Z,23.30
2018-09-16T14:26:21.225Z,23.30
2018-09-16T14:28:48.580Z,23.30
2018-09-16T14:31:16.069Z,23.30
2018-09-16T14:33:43.498Z,23.30
2018-09-16T14:36:10.949Z,23.30
2018-09-16T14:38:39.439Z,23.30
2018-09-16T14:41:06.932Z,23.40
2018-09-16T14:43:34.324Z,23.50
2018-09-16T14:46:01.750Z,23.80
2018-09-16T14:48:29.200Z,23.70
2018-09-16T14:50:56.585Z,23.70
2018-09-16T14:53:24.040Z,23.70
2018-09-16T14:55:51.456Z,23.60
2018-09-16T14:58:18.838Z,23.60
2018-09-16T15:00:46.310Z,24.00
2018-09-16T15:03:13.828Z,24.10
2018-09-16T15:05:41.271Z,24.50
2018-09-16T15:08:13.239Z,24.30
2018-09-16T15:10:40.648Z,24.30
2018-09-16T15:13:08.185Z,24.40
2018-09-16T15:15:35.510Z,24.30
2018-09-16T15:18:02.910Z,24.10
2018-09-16T15:20:30.370Z,23.90
2018-09-16T15:22:57.752Z,23.80
2018-09-16T15:25:25.155Z,23.70
2018-09-16T15:27:52.689Z,23.70
2018-09-16T15:30:20.081Z,23.60
2018-09-16T15:32:47.547Z,23.60
2018-09-16T15:35:14.997Z,23.70
2018-09-16T15:37:42.367Z,23.70
2018-09-16T15:40:09.784Z,23.70
2018-09-16T15:42:37.366Z,23.70
2018-09-16T15:45:04.835Z,23.80
2018-09-16T15:47:32.235Z,23.70
2018-09-16T15:49:59.623Z,23.80
2018-09-16T15:52:27.079Z,23.80
2018-09-16T15:54:54.472Z,23.80
2018-09-16T15:57:21.917Z,23.80
2018-09-16T15:59:49.322Z,23.90
2018-09-16T16:02:16.777Z,23.90
2018-09-16T16:04:44.194Z,23.90
2018-09-16T16:07:11.649Z,24.00
2018-09-16T16:09:39.537Z,23.80
2018-09-16T16:12:07.060Z,23.80
2018-09-16T16:14:35.527Z,23.80
2018-09-16T16:17:02.967Z,23.70
2018-09-16T16:19:30.520Z,23.70
2018-09-16T16:21:57.863Z,23.70
2018-09-16T16:24:25.276Z,23.70
2018-09-16T16:26:52.707Z,23.60
2018-09-16T16:29:20.500Z,23.60
2018-09-16T16:31:48.011Z,23.60
2018-09-16T16:34:15.523Z,23.60
2018-09-16T16:36:43.026Z,23.50
2018-09-16T16:39:11.116Z,23.60
2018-09-16T16:41:38.596Z,23.50
2018-09-16T16:44:06.098Z,23.60
2018-09-16T16:46:33.491Z,23.60
2018-09-16T16:49:00.950Z,23.50
2018-09-16T16:51:28.434Z,23.60
2018-09-16T16:53:55.892Z,23.60
2018-09-16T16:56:23.303Z,23.60
2018-09-16T16:58:50.713Z,23.50
2018-09-16T17:01:18.251Z,23.50
2018-09-16T17:03:45.715Z,23.50
2018-09-16T17:06:13.889Z,23.50
2018-09-16T17:08:41.679Z,23.60
2018-09-16T17:11:09.391Z,23.50
2018-09-16T17:13:36.845Z,23.50
2018-09-16T17:16:04.512Z,23.50
2018-09-16T17:18:31.946Z,23.50
2018-09-16T17:20:59.680Z,23.50
2018-09-16T17:23:27.169Z,23.40
2018-09-16T17:25:54.527Z,23.40
2018-09-16T17:28:21.989Z,23.40
2018-09-16T17:30:49.351Z,23.30
2018-09-16T17:33:16.695Z,23.20
2018-09-16T17:35:44.092Z,23.10
2018-09-16T17:38:11.457Z,23.00
2018-09-16T17:40:38.958Z,23.00
2018-09-16T17:43:06.364Z,23.00
2018-09-16T17:45:33.748Z,22.90
2018-09-16T17:48:01.239Z,22.80
2018-09-16T17:50:28.816Z,22.80
2018-09-16T17:52:56.216Z,22.80
2018-09-16T17:55:23.686Z,22.70
2018-09-16T17:57:51.143Z,22.50
2018-09-16T18:00:18.610Z,22.50
2018-09-16T18:02:46.042Z,22.50
2018-09-16T18:05:13.448Z,22.40
2018-09-16T18:07:40.844Z,22.30
2018-09-16T18:10:08.350Z,22.20
2018-09-16T18:12:35.744Z,22.20
2018-09-16T18:15:03.235Z,22.10
2018-09-16T18:17:30.724Z,22.10
2018-09-16T18:19:58.184Z,22.00
2018-09-16T18:22:25.637Z,21.90
2018-09-16T18:24:53.100Z,21.80
2018-09-16T18:27:20.532Z,21.70
2018-09-16T18:29:47.983Z,21.70
2018-09-16T18:32:15.276Z,21.60
2018-09-16T18:34:42.703Z,21.60
2018-09-16T18:37:10.113Z,21.50
2018-09-16T18:39:37.617Z,21.40
2018-09-16T18:42:05.050Z,21.30
2018-09-16T18:44:33.244Z,21.30
2018-09-16T18:47:00.881Z,21.20
2018-09-16T18:49:29.032Z,21.20
2018-09-16T18:51:56.475Z,21.20
2018-09-16T18:54:24.003Z,21.10
2018-09-16T18:56:51.398Z,21.00
2018-09-16T18:59:18.865Z,21.00
2018-09-16T19:01:46.347Z,21.00
2018-09-16T19:04:13.858Z,20.90
2018-09-16T19:06:41.673Z,20.90
2018-09-16T19:09:09.910Z,20.80
2018-09-16T19:11:37.752Z,20.80
2018-09-16T19:14:05.470Z,20.70
2018-09-16T19:16:33.753Z,20.70
2018-09-16T19:19:01.526Z,20.60
2018-09-16T19:21:29.226Z,20.50
2018-09-16T19:23:57.135Z,20.50
2018-09-16T19:26:24.710Z,20.40
2018-09-16T19:28:52.408Z,20.40
2018-09-16T19:31:20.138Z,20.30
2018-09-16T19:33:47.795Z,20.20
2018-09-16T19:36:15.344Z,20.10
2018-09-16T19:38:43.127Z,20.10
2018-09-16T19:41:12.191Z,20.00
2018-09-16T19:43:40.039Z,20.00
2018-09-16T19:46:07.645Z,20.00
2018-09-16T19:48:35.114Z,19.90
2018-09-16T19:51:02.540Z,19.80
2018-09-16T19:53:30.040Z,19.70
2018-09-16T19:55:57.481Z,19.60
2018-09-16T19:58:25.001Z,19.50
2018-09-16T20:00:52.448Z,19.50
2018-09-16T20:03:19.936Z,19.40
2018-09-16T20:05:47.338Z,19.30
2018-09-16T20:08:14.772Z,19.30
2018-09-16T20:10:42.200Z,19.30
2018-09-16T20:13:09.642Z,19.20
2018-09-16T20:15:37.208Z,19.30
2018-09-16T20:18:04.752Z,19.20
2018-09-16T20:20:33.755Z,19.20
2018-09-16T20:23:01.262Z,19.20
2018-09-16T20:25:29.036Z,19.10
2018-09-16T20:27:56.494Z,19.10
2018-09-16T20:30:23.911Z,19.00
2018-09-16T20:32:51.398Z,19.00
2018-09-16T20:35:18.852Z,19.00
2018-09-16T20:37:46.296Z,18.90
2018-09-16T20:40:13.790Z,18.80
2018-09-16T20:42:41.244Z,18.70
2018-09-16T20:45:08.781Z,18.70
2018-09-16T20:47:36.417Z,18.60
2018-09-16T20:50:04.328Z,18.60
2018-09-16T20:52:31.914Z,18.50
2018-09-16T20:54:59.284Z,18.50
2018-09-16T20:57:26.639Z,18.40
2018-09-16T20:59:54.046Z,18.40
2018-09-16T21:02:21.536Z,18.40
2018-09-16T21:04:50.348Z,18.40
2018-09-16T21:07:17.881Z,18.40
2018-09-16T21:09:45.398Z,18.30
2018-09-16T21:12:12.861Z,18.30
2018-09-16T21:14:40.321Z,18.20
2018-09-16T21:17:09.730Z,18.20
2018-09-16T21:19:37.140Z,18.20
2018-09-16T21:22:06.367Z,18.20
2018-09-16T21:24:35.204Z,18.10
2018-09-16T21:27:05.662Z,18.10
2018-09-16T21:29:36.331Z,18.00
2018-09-16T21:32:05.646Z,18.00
2018-09-16T21:34:35.492Z,17.90
2018-09-16T21:37:04.838Z,17.90
2018-09-16T21:39:34.413Z,17.90
2018-09-16T21:42:04.199Z,17.90
2018-09-16T21:44:33.867Z,17.90
2018-09-16T21:47:01.622Z,17.90
2018-09-16T21:49:29.033Z,17.80
2018-09-16T21:51:56.422Z,17.80
2018-09-16T21:54:23.857Z,17.80
2018-09-16T21:56:51.267Z,17.80
2018-09-16T21:59:18.669Z,17.70
2018-09-16T22:01:46.144Z,17.70
2018-09-16T22:04:13.530Z,17.60
2018-09-16T22:06:40.997Z,17.60
2018-09-16T22:09:09.452Z,17.50
2018-09-16T22:11:36.911Z,17.50
2018-09-16T22:14:04.311Z,17.40
2018-09-16T22:16:31.755Z,17.40
2018-09-16T22:18:59.160Z,17.40
2018-09-16T22:21:26.511Z,17.40
2018-09-16T22:23:53.993Z,17.30
2018-09-16T22:26:21.493Z,17.30
2018-09-16T22:28:48.952Z,17.30
2018-09-16T22:31:18.656Z,17.30
2018-09-16T22:33:46.549Z,17.30
2018-09-16T22:36:14.042Z,17.30
2018-09-16T22:38:41.573Z,17.30
2018-09-16T22:41:09.051Z,17.10
2018-09-16T22:43:36.608Z,17.00
2018-09-16T22:46:04.067Z,16.80
2018-09-16T22:48:31.615Z,16.70
2018-09-16T22:50:59.052Z,16.60
2018-09-16T22:53:26.516Z,16.70
2018-09-16T22:55:54.016Z,16.70
2018-09-16T22:58:21.445Z,16.70
2018-09-16T23:00:48.933Z,16.70
2018-09-16T23:03:16.355Z,16.70
2018-09-16T23:05:43.775Z,16.60
2018-09-16T23:08:11.228Z,16.60
2018-09-16T23:10:38.620Z,16.60
2018-09-16T23:13:06.160Z,16.60
2018-09-16T23:15:33.635Z,16.60
2018-09-16T23:18:01.049Z,16.50
2018-09-16T23:20:28.482Z,16.40
2018-09-16T23:22:56.111Z,16.40
2018-09-16T23:25:23.511Z,16.30
2018-09-16T23:27:50.969Z,16.30
2018-09-16T23:30:18.374Z,16.30
2018-09-16T23:32:45.973Z,16.30
2018-09-16T23:35:13.329Z,16.30
2018-09-16T23:37:41.315Z,16.30
2018-09-16T23:40:08.727Z,16.30
2018-09-16T23:42:36.187Z,16.20
2018-09-16T23:45:03.583Z,16.20
2018-09-16T23:47:31.052Z,16.20
2018-09-16T23:49:58.517Z,16.20
2018-09-16T23:52:26.112Z,16.20
2018-09-16T23:54:53.472Z,16.10
2018-09-16T23:57:20.860Z,16.10
2018-09-16T23:59:48.327Z,16.00
